createdAt,value
2022-10-05T00:01:53.176Z,79.05
2022-10-05T00:04:23.899Z,79.14
2022-10-05T00:07:14.544Z,78.99
2022-10-05T00:09:42.236Z,79.31
2022-10-05T00:12:17.683Z,79.65
2022-10-05T00:14:46.353Z,79.81
2022-10-05T00:17:24.895Z,79.55
2022-10-05T00:19:53.976Z,79.39
2022-10-05T00:22:23.468Z,79.18
2022-10-05T00:24:55.053Z,79.03
2022-10-05T00:27:24.844Z,79.04
2022-10-05T00:29:53.743Z,78.88
2022-10-05T00:32:21.356Z,78.57
2022-10-05T00:34:48.863Z,78.65
2022-10-05T00:37:16.453Z,78.77
2022-10-05T00:39:44.348Z,79.27
2022-10-05T00:42:40.313Z,79.64
2022-10-05T00:45:38.039Z,79.40
2022-10-05T00:48:27.026Z,79.57
2022-10-05T00:51:52.884Z,79.15
2022-10-05T00:54:32.473Z,79.00
2022-10-05T00:57:20.265Z,78.79
2022-10-05T01:00:12.503Z,78.81
2022-10-05T01:02:50.236Z,78.66
2022-10-05T01:05:47.170Z,78.51
2022-10-05T01:08:41.459Z,78.65
2022-10-05T01:11:14.640Z,78.52
2022-10-05T01:13:42.173Z,78.85
2022-10-05T01:16:30.106Z,78.92
2022-10-05T01:18:57.564Z,79.08
2022-10-05T01:21:26.302Z,78.76
2022-10-05T01:24:21.641Z,78.56
2022-10-05T01:26:58.178Z,78.54
2022-10-05T01:29:37.651Z,78.06
2022-10-05T01:32:14.265Z,78.40
2022-10-05T01:35:08.015Z,78.35
2022-10-05T01:37:41.458Z,78.16
2022-10-05T01:40:25.127Z,78.31
2022-10-05T01:42:55.958Z,78.69
2022-10-05T01:45:33.665Z,79.07
2022-10-05T01:48:09.640Z,79.18
2022-10-05T01:50:46.850Z,79.43
2022-10-05T01:53:18.250Z,79.03
2022-10-05T01:56:02.386Z,78.74
2022-10-05T01:58:32.683Z,78.53
2022-10-05T02:01:05.091Z,78.31
2022-10-05T02:03:38.596Z,78.27
2022-10-05T02:06:15.722Z,78.37
2022-10-05T02:09:21.861Z,78.06
2022-10-05T02:11:54.555Z,78.47
2022-10-05T02:14:28.677Z,78.66
2022-10-05T02:16:56.163Z,79.19
2022-10-05T02:19:35.599Z,79.62
2022-10-05T02:22:08.015Z,79.63
2022-10-05T02:24:43.499Z,79.62
2022-10-05T02:27:11.478Z,79.35
2022-10-05T02:29:40.225Z,79.46
2022-10-05T02:32:12.876Z,79.45
2022-10-05T02:34:41.660Z,79.82
2022-10-05T02:37:54.237Z,80.14
2022-10-05T02:40:35.479Z,80.04
2022-10-05T02:43:22.932Z,80.30
2022-10-05T02:46:03.216Z,80.17
2022-10-05T02:48:49.012Z,79.79
2022-10-05T02:51:23.210Z,80.24
2022-10-05T02:54:00.450Z,80.75
2022-10-05T02:56:43.221Z,81.00
2022-10-05T02:59:13.258Z,80.67
2022-10-05T03:01:49.179Z,80.63
2022-10-05T03:04:25.929Z,80.22
2022-10-05T03:07:17.140Z,80.14
2022-10-05T03:10:01.059Z,80.01
2022-10-05T03:12:39.586Z,80.26
2022-10-05T03:15:10.296Z,80.69
2022-10-05T03:17:46.559Z,81.10
2022-10-05T03:20:33.968Z,80.97
2022-10-05T03:23:02.410Z,80.82
2022-10-05T03:25:40.127Z,80.59
2022-10-05T03:28:10.488Z,80.58
2022-10-05T03:30:42.639Z,80.48
2022-10-05T03:33:29.068Z,80.37
2022-10-05T03:35:58.038Z,81.00
2022-10-05T03:38:34.797Z,81.07
2022-10-05T03:41:12.547Z,80.78
2022-10-05T03:44:08.189Z,80.26
2022-10-05T03:46:41.956Z,80.34
2022-10-05T03:49:11.524Z,80.21
2022-10-05T03:51:41.300Z,80.40
2022-10-05T03:54:26.626Z,81.17
2022-10-05T03:57:01.649Z,81.12
2022-10-05T03:59:32.911Z,81.07
2022-10-05T04:02:02.808Z,80.95
2022-10-05T04:04:38.993Z,81.10
2022-10-05T04:07:06.575Z,81.66
2022-10-05T04:09:40.795Z,81.64
2022-10-05T04:12:11.280Z,81.51
2022-10-05T04:14:41.705Z,81.45
2022-10-05T04:17:33.379Z,81.26
2022-10-05T04:20:04.535Z,81.22
2022-10-05T04:22:46.205Z,81.72
2022-10-05T04:25:26.595Z,81.60
2022-10-05T04:28:27.061Z,81.31
2022-10-05T04:30:57.149Z,81.50
2022-10-05T04:33:24.852Z,81.06
2022-10-05T04:35:56.818Z,81.61
2022-10-05T04:38:50.029Z,81.54
2022-10-05T04:41:42.385Z,81.53
2022-10-05T04:44:23.442Z,81.11
2022-10-05T04:47:27.846Z,81.26
2022-10-05T04:50:03.933Z,81.21
2022-10-05T04:52:34.950Z,81.62
2022-10-05T04:55:10.127Z,81.68
2022-10-05T04:58:00.299Z,81.44
2022-10-05T05:00:38.637Z,81.44
2022-10-05T05:03:32.499Z,81.26
2022-10-05T05:06:16.915Z,81.38
2022-10-05T05:09:03.600Z,81.04
2022-10-05T05:11:35.093Z,81.50
2022-10-05T05:14:34.599Z,81.71
2022-10-05T05:17:20.968Z,81.67
2022-10-05T05:20:05.798Z,81.26
2022-10-05T05:22:39.266Z,81.02
2022-10-05T05:25:36.009Z,80.72
2022-10-05T05:28:06.645Z,80.49
2022-10-05T05:30:54.581Z,80.62
2022-10-05T05:33:25.195Z,80.82
2022-10-05T05:36:27.999Z,80.49
2022-10-05T05:39:06.599Z,80.12
2022-10-05T05:41:38.681Z,80.14
2022-10-05T05:44:20.732Z,80.12
2022-10-05T05:47:15.164Z,80.32
2022-10-05T05:50:08.211Z,80.10
2022-10-05T05:52:45.921Z,79.70
2022-10-05T05:55:35.540Z,79.73
2022-10-05T05:58:11.105Z,80.08
2022-10-05T06:00:43.335Z,79.82
2022-10-05T06:03:38.654Z,79.39
2022-10-05T06:06:10.526Z,79.11
2022-10-05T06:08:42.981Z,78.87
2022-10-05T06:11:53.921Z,79.24
2022-10-05T06:14:32.531Z,78.94
2022-10-05T06:17:06.674Z,78.59
2022-10-05T06:19:34.643Z,78.39
2022-10-05T06:22:14.539Z,78.28
2022-10-05T06:25:06.922Z,78.04
2022-10-05T06:27:34.573Z,78.21
2022-10-05T06:30:13.451Z,78.00
2022-10-05T06:32:49.935Z,77.53
2022-10-05T06:35:38.633Z,76.95
2022-10-05T06:38:12.231Z,76.80
2022-10-05T06:41:11.071Z,76.57
2022-10-05T06:44:03.914Z,76.27
2022-10-05T06:46:51.101Z,76.17
2022-10-05T06:49:49.070Z,75.77
2022-10-05T06:52:49.358Z,75.63
2022-10-05T06:55:24.067Z,75.26
2022-10-05T06:58:07.769Z,74.26
2022-10-05T07:00:40.307Z,74.02
2022-10-05T07:03:24.005Z,74.59
2022-10-05T07:05:59.890Z,74.50
2022-10-05T07:08:40.357Z,74.24
2022-10-05T07:11:24.722Z,73.80
2022-10-05T07:14:16.304Z,73.64
2022-10-05T07:16:59.783Z,72.99
2022-10-05T07:19:52.477Z,72.79
2022-10-05T07:22:31.754Z,72.37
2022-10-05T07:25:45.048Z,72.01
2022-10-05T07:28:21.790Z,72.18
2022-10-05T07:30:58.935Z,71.04
2022-10-05T07:33:46.463Z,70.78
2022-10-05T07:36:53.713Z,70.37
2022-10-05T07:39:58.526Z,69.91
2022-10-05T07:42:48.907Z,68.76
2022-10-05T07:45:29.230Z,67.99
2022-10-05T07:47:59.726Z,67.81
2022-10-05T07:50:49.392Z,67.76
2022-10-05T07:53:22.616Z,67.63
2022-10-05T07:55:52.453Z,66.82
2022-10-05T07:58:30.134Z,66.68
2022-10-05T08:01:26.277Z,66.85
2022-10-05T08:03:57.195Z,66.09
2022-10-05T08:06:31.573Z,65.87
2022-10-05T08:09:04.670Z,65.70
2022-10-05T08:12:01.738Z,65.61
2022-10-05T08:15:03.858Z,64.86
2022-10-05T08:17:54.019Z,64.25
2022-10-05T08:20:45.105Z,64.59
2022-10-05T08:23:17.178Z,63.82
2022-10-05T08:25:49.208Z,63.85
2022-10-05T08:28:39.607Z,63.23
2022-10-05T08:31:32.221Z,63.45
2022-10-05T08:34:22.123Z,63.10
2022-10-05T08:37:01.774Z,62.81
2022-10-05T08:40:01.391Z,62.99
2022-10-05T08:42:47.333Z,63.07
2022-10-05T08:45:33.608Z,63.42
2022-10-05T08:48:19.507Z,63.20
2022-10-05T08:50:59.083Z,63.21
2022-10-05T08:53:26.588Z,62.33
2022-10-05T08:56:28.633Z,63.22
2022-10-05T08:59:15.342Z,63.35
2022-10-05T09:01:55.509Z,63.04
2022-10-05T09:04:59.635Z,62.71
2022-10-05T09:08:04.838Z,62.33
2022-10-05T09:10:51.019Z,62.52
2022-10-05T09:13:58.778Z,62.76
2022-10-05T09:16:43.412Z,62.11
2022-10-05T09:19:23.016Z,62.10
2022-10-05T09:21:57.896Z,62.11
2022-10-05T09:24:36.511Z,61.36
2022-10-05T09:27:10.633Z,61.24
2022-10-05T09:30:00.158Z,61.12
2022-10-05T09:32:58.651Z,60.74
2022-10-05T09:35:58.176Z,60.57
2022-10-05T09:38:39.864Z,59.54
2022-10-05T09:41:22.000Z,59.94
2022-10-05T09:44:11.095Z,59.83
2022-10-05T09:47:24.092Z,59.67
2022-10-05T09:50:07.021Z,58.97
2022-10-05T09:52:52.797Z,58.64
2022-10-05T09:55:51.269Z,58.32
2022-10-05T09:58:37.015Z,57.43
2022-10-05T10:01:32.656Z,55.84
2022-10-05T10:04:24.706Z,55.50
2022-10-05T10:06:55.234Z,55.12
2022-10-05T10:09:41.693Z,54.26
2022-10-05T10:12:09.171Z,54.81
2022-10-05T10:15:10.973Z,54.97
2022-10-05T10:17:53.798Z,54.09
2022-10-05T10:20:45.024Z,53.53
2022-10-05T10:23:15.509Z,52.23
2022-10-05T10:26:01.956Z,50.23
2022-10-05T10:28:39.787Z,46.12
2022-10-05T10:31:33.743Z,43.14
2022-10-05T10:34:44.117Z,42.09
2022-10-05T10:37:21.936Z,41.36
2022-10-05T10:40:14.126Z,40.77
2022-10-05T10:42:59.145Z,41.13
2022-10-05T10:46:06.079Z,40.35
2022-10-05T10:48:50.031Z,38.25
2022-10-05T10:51:25.982Z,36.23
2022-10-05T10:54:21.971Z,35.59
2022-10-05T10:56:58.253Z,35.97
2022-10-05T10:59:50.121Z,35.42
2022-10-05T11:02:42.415Z,36.63
2022-10-05T11:05:20.015Z,37.01
2022-10-05T11:08:09.793Z,38.24
2022-10-05T11:11:00.732Z,39.59
2022-10-05T11:13:31.111Z,39.34
2022-10-05T11:16:12.518Z,39.86
2022-10-05T11:19:07.611Z,38.94
2022-10-05T11:21:43.384Z,39.58
2022-10-05T11:24:26.418Z,38.24
2022-10-05T11:26:56.975Z,37.64
2022-10-05T11:29:41.396Z,37.60
2022-10-05T11:32:47.333Z,38.70
2022-10-05T11:35:38.323Z,40.15
2022-10-05T11:38:32.607Z,40.56
2022-10-05T11:41:24.148Z,41.06
2022-10-05T11:44:10.373Z,40.91
2022-10-05T11:47:03.201Z,42.08
2022-10-05T11:49:35.850Z,42.78
2022-10-05T11:52:30.785Z,43.58
2022-10-05T11:55:19.571Z,44.21
2022-10-05T11:57:57.102Z,44.63
2022-10-05T12:00:40.497Z,45.23
2022-10-05T12:03:33.539Z,45.93
2022-10-05T12:06:38.231Z,46.77
2022-10-05T12:09:30.732Z,47.46
2022-10-05T12:12:22.183Z,48.08
2022-10-05T12:14:54.276Z,48.62
2022-10-05T12:17:46.532Z,48.91
2022-10-05T12:20:20.951Z,49.23
2022-10-05T12:22:59.015Z,49.48
2022-10-05T12:25:39.118Z,49.64
2022-10-05T12:28:11.128Z,50.23
2022-10-05T12:31:22.456Z,50.48
2022-10-05T12:34:12.025Z,50.87
2022-10-05T12:37:04.110Z,51.12
2022-10-05T12:39:57.021Z,51.53
2022-10-05T12:42:40.869Z,51.83
2022-10-05T12:45:21.362Z,52.32
2022-10-05T12:47:58.061Z,52.63
2022-10-05T12:50:28.424Z,53.26
2022-10-05T12:52:59.428Z,53.09
2022-10-05T12:55:54.513Z,53.42
2022-10-05T12:58:45.661Z,53.72
2022-10-05T13:01:25.277Z,53.80
2022-10-05T13:03:55.182Z,54.40
2022-10-05T13:06:28.446Z,54.57
2022-10-05T13:08:58.718Z,54.73
2022-10-05T13:11:36.110Z,54.84
2022-10-05T13:14:42.792Z,54.77
2022-10-05T13:17:16.900Z,55.04
2022-10-05T13:19:47.093Z,55.19
2022-10-05T13:22:44.176Z,55.34
2022-10-05T13:25:27.188Z,55.52
2022-10-05T13:28:17.797Z,55.54
2022-10-05T13:30:51.739Z,55.53
2022-10-05T13:33:27.280Z,55.61
2022-10-05T13:36:30.024Z,55.75
2022-10-05T13:38:59.575Z,55.99
2022-10-05T13:41:54.510Z,56.08
2022-10-05T13:44:34.008Z,56.45
2022-10-05T13:47:09.211Z,56.30
2022-10-05T13:49:42.720Z,56.36
2022-10-05T13:52:19.726Z,56.59
2022-10-05T13:55:12.282Z,56.88
2022-10-05T13:58:02.455Z,56.99
2022-10-05T14:00:30.463Z,57.27
2022-10-05T14:02:58.704Z,57.47
2022-10-05T14:05:30.625Z,57.70
2022-10-05T14:08:04.285Z,57.94
2022-10-05T14:10:39.765Z,57.96
2022-10-05T14:13:22.418Z,58.53
2022-10-05T14:16:01.752Z,58.74
2022-10-05T14:18:32.719Z,58.86
2022-10-05T14:21:17.297Z,59.07
2022-10-05T14:23:45.051Z,59.45
2022-10-05T14:26:25.772Z,59.64
2022-10-05T14:28:58.622Z,59.83
2022-10-05T14:31:36.868Z,60.13
2022-10-05T14:34:31.699Z,60.04
2022-10-05T14:37:19.056Z,60.14
2022-10-05T14:39:48.795Z,60.37
2022-10-05T14:42:18.930Z,60.48
2022-10-05T14:45:00.011Z,60.55
2022-10-05T14:47:30.169Z,60.82
2022-10-05T14:50:13.919Z,61.03
2022-10-05T14:52:46.412Z,61.36
2022-10-05T14:55:38.892Z,61.49
2022-10-05T14:58:23.887Z,61.62
2022-10-05T15:00:58.822Z,61.70
2022-10-05T15:03:41.614Z,61.86
2022-10-05T15:06:16.258Z,62.07
2022-10-05T15:09:02.320Z,62.19
2022-10-05T15:11:38.702Z,62.69
2022-10-05T15:14:13.756Z,62.50
2022-10-05T15:16:42.211Z,62.78
2022-10-05T15:19:24.961Z,62.97
2022-10-05T15:22:07.500Z,63.67
2022-10-05T15:24:43.746Z,63.96
2022-10-05T15:27:36.406Z,64.01
2022-10-05T15:30:17.942Z,65.00
2022-10-05T15:32:49.809Z,64.89
2022-10-05T15:35:36.050Z,64.89
2022-10-05T15:38:26.582Z,64.83
2022-10-05T15:40:59.100Z,64.97
2022-10-05T15:43:33.481Z,65.13
2022-10-05T15:46:12.428Z,65.54
2022-10-05T15:49:14.594Z,66.02
2022-10-05T15:52:03.634Z,66.06
2022-10-05T15:54:49.959Z,66.19
2022-10-05T15:57:42.521Z,66.88
2022-10-05T16:00:17.273Z,67.39
2022-10-05T16:03:33.120Z,67.31
2022-10-05T16:06:24.392Z,67.25
2022-10-05T16:09:23.211Z,67.15
2022-10-05T16:12:06.916Z,67.45
2022-10-05T16:14:54.592Z,67.55
2022-10-05T16:17:33.787Z,67.63
2022-10-05T16:20:16.734Z,67.59
2022-10-05T16:23:21.593Z,67.97
2022-10-05T16:26:02.680Z,69.06
2022-10-05T16:28:42.701Z,69.09
2022-10-05T16:31:18.821Z,68.83
2022-10-05T16:33:54.629Z,68.69
2022-10-05T16:36:26.119Z,68.74
2022-10-05T16:39:00.184Z,68.68
2022-10-05T16:42:19.128Z,68.82
2022-10-05T16:45:18.452Z,69.43
2022-10-05T16:48:05.179Z,69.74
2022-10-05T16:50:48.893Z,69.58
2022-10-05T16:53:23.343Z,70.06
2022-10-05T16:56:01.147Z,69.83
2022-10-05T16:58:54.664Z,70.37
2022-10-05T17:01:45.949Z,70.54
2022-10-05T17:04:16.323Z,70.33
2022-10-05T17:07:02.493Z,70.37
2022-10-05T17:09:44.708Z,70.14
2022-10-05T17:12:34.224Z,70.08
2022-10-05T17:15:08.868Z,70.08
2022-10-05T17:17:58.390Z,70.43
2022-10-05T17:20:32.052Z,70.52
2022-10-05T17:23:04.362Z,70.30
2022-10-05T17:25:54.141Z,70.29
2022-10-05T17:28:23.263Z,70.32
2022-10-05T17:31:11.250Z,70.57
2022-10-05T17:34:03.518Z,70.15
2022-10-05T17:36:43.297Z,69.87
2022-10-05T17:39:50.159Z,69.63
2022-10-05T17:42:26.748Z,69.66
2022-10-05T17:44:55.208Z,69.51
2022-10-05T17:47:56.216Z,69.60
2022-10-05T17:51:02.871Z,69.88
2022-10-05T17:54:02.090Z,69.57
2022-10-05T17:56:31.081Z,69.27
2022-10-05T17:59:00.252Z,69.21
2022-10-05T18:01:38.467Z,69.15
2022-10-05T18:04:11.873Z,69.12
2022-10-05T18:07:00.220Z,69.04
2022-10-05T18:09:30.684Z,69.11
2022-10-05T18:12:16.477Z,69.62
2022-10-05T18:15:00.522Z,69.24
2022-10-05T18:17:46.268Z,69.08
2022-10-05T18:20:32.603Z,69.03
2022-10-05T18:23:01.180Z,69.29
2022-10-05T18:25:43.804Z,69.34
2022-10-05T18:28:14.075Z,69.48
2022-10-05T18:31:24.774Z,69.61
2022-10-05T18:34:14.220Z,69.57
2022-10-05T18:36:48.202Z,69.29
2022-10-05T18:39:27.634Z,68.97
2022-10-05T18:42:07.334Z,69.13
2022-10-05T18:44:46.348Z,69.08
2022-10-05T18:47:42.079Z,69.06
2022-10-05T18:50:23.061Z,69.13
2022-10-05T18:52:53.512Z,69.07
2022-10-05T18:55:44.925Z,69.01
2022-10-05T18:58:37.077Z,68.84
2022-10-05T19:01:41.662Z,68.85
2022-10-05T19:04:14.070Z,68.68
2022-10-05T19:06:50.406Z,68.81
2022-10-05T19:09:43.172Z,68.74
2022-10-05T19:12:35.142Z,68.99
2022-10-05T19:15:27.651Z,68.56
2022-10-05T19:17:58.740Z,68.35
2022-10-05T19:20:32.412Z,68.22
2022-10-05T19:23:18.611Z,68.28
2022-10-05T19:26:03.240Z,68.34
2022-10-05T19:28:55.843Z,68.38
2022-10-05T19:31:35.089Z,68.56
2022-10-05T19:34:40.977Z,68.56
2022-10-05T19:37:13.056Z,68.31
2022-10-05T19:39:55.112Z,68.26
2022-10-05T19:42:38.945Z,68.42
2022-10-05T19:45:22.859Z,68.53
2022-10-05T19:48:26.718Z,68.39
2022-10-05T19:50:58.433Z,68.70
2022-10-05T19:53:30.655Z,68.71
2022-10-05T19:56:12.727Z,69.15
2022-10-05T19:58:40.248Z,69.30
2022-10-05T20:01:07.893Z,69.07
2022-10-05T20:03:37.345Z,68.85
2022-10-05T20:06:06.525Z,69.25
2022-10-05T20:08:59.804Z,69.29
2022-10-05T20:11:28.034Z,69.27
2022-10-05T20:13:55.628Z,69.68
2022-10-05T20:16:44.952Z,70.03
2022-10-05T20:19:51.192Z,69.72
2022-10-05T20:22:46.134Z,69.54
2022-10-05T20:25:19.607Z,69.76
2022-10-05T20:27:50.657Z,69.64
2022-10-05T20:30:20.115Z,69.75
2022-10-05T20:32:48.703Z,69.99
2022-10-05T20:35:18.118Z,70.32
2022-10-05T20:37:45.658Z,70.48
2022-10-05T20:40:14.824Z,70.52
2022-10-05T20:42:42.364Z,70.39
2022-10-05T20:45:11.144Z,70.27
2022-10-05T20:47:38.985Z,70.39
2022-10-05T20:50:09.032Z,70.54
2022-10-05T20:52:39.666Z,70.93
2022-10-05T20:55:09.353Z,71.40
2022-10-05T20:57:41.521Z,71.13
2022-10-05T21:00:12.785Z,71.10
2022-10-05T21:02:40.357Z,71.03
2022-10-05T21:05:08.651Z,71.08
2022-10-05T21:07:36.416Z,71.01
2022-10-05T21:10:04.546Z,71.14
2022-10-05T21:12:33.970Z,71.44
2022-10-05T21:15:04.693Z,71.89
2022-10-05T21:17:34.611Z,71.94
2022-10-05T21:20:02.152Z,71.80
2022-10-05T21:22:29.718Z,71.69
2022-10-05T21:24:58.415Z,71.79
2022-10-05T21:27:26.130Z,71.80
2022-10-05T21:29:53.662Z,71.80
2022-10-05T21:32:21.206Z,72.36
2022-10-05T21:34:48.772Z,72.49
2022-10-05T21:37:16.492Z,72.27
2022-10-05T21:39:44.291Z,72.10
2022-10-05T21:42:11.917Z,72.06
2022-10-05T21:44:39.572Z,71.96
2022-10-05T21:47:07.047Z,71.87
2022-10-05T21:49:34.716Z,72.16
2022-10-05T21:52:02.325Z,72.30
2022-10-05T21:54:30.499Z,72.88
2022-10-05T21:56:58.859Z,73.05
2022-10-05T21:59:28.077Z,72.86
2022-10-05T22:01:55.580Z,72.71
2022-10-05T22:04:23.134Z,72.84
2022-10-05T22:06:51.219Z,73.06
2022-10-05T22:09:18.795Z,73.12
2022-10-05T22:11:47.922Z,73.14
2022-10-05T22:14:15.782Z,73.73
2022-10-05T22:16:43.726Z,73.87
2022-10-05T22:19:14.453Z,73.66
2022-10-05T22:21:42.036Z,73.50
2022-10-05T22:24:11.432Z,73.54
2022-10-05T22:26:39.571Z,73.44
2022-10-05T22:29:07.305Z,73.57
2022-10-05T22:31:35.131Z,73.66
2022-10-05T22:34:02.835Z,74.09
2022-10-05T22:36:30.395Z,74.56
2022-10-05T22:38:58.322Z,75.00
2022-10-05T22:41:25.897Z,75.38
2022-10-05T22:43:53.495Z,75.24
2022-10-05T22:46:21.161Z,75.00
2022-10-05T22:48:48.883Z,74.78
2022-10-05T22:51:16.670Z,74.85
2022-10-05T22:53:44.261Z,74.87
2022-10-05T22:56:13.097Z,74.58
2022-10-05T22:58:41.247Z,74.71
2022-10-05T23:01:10.811Z,74.85
2022-10-05T23:03:38.513Z,75.57
2022-10-05T23:06:11.041Z,76.04
2022-10-05T23:08:38.992Z,76.18
2022-10-05T23:11:14.282Z,75.97
2022-10-05T23:13:41.806Z,75.81
2022-10-05T23:16:17.434Z,75.76
2022-10-05T23:18:45.343Z,75.67
2022-10-05T23:21:12.862Z,75.88
2022-10-05T23:23:41.734Z,75.78
2022-10-05T23:26:10.639Z,76.02
2022-10-05T23:28:43.126Z,76.44
2022-10-05T23:31:10.802Z,77.09
2022-10-05T23:33:38.541Z,76.93
2022-10-05T23:36:26.034Z,76.92
2022-10-05T23:38:54.088Z,76.80
2022-10-05T23:41:21.801Z,76.67
2022-10-05T23:43:49.498Z,76.60
2022-10-05T23:46:17.793Z,76.94
2022-10-05T23:48:45.430Z,77.16
2022-10-05T23:51:13.193Z,77.13
2022-10-05T23:53:40.714Z,77.01
2022-10-05T23:56:08.280Z,76.97
2022-10-05T23:58:35.966Z,76.77
